地図

経路データ

SID SEASON NUMBER BASIN SUBBASIN NAME ISO_TIME NATURE LAT LON WMO_WIND WMO_PRES WMO_AGENCY TRACK_TYPE DIST2LAND LANDFALL IFLAG USA_AGENCY USA_ATCF_ID USA_LAT USA_LON USA_RECORD USA_STATUS USA_WIND USA_PRES USA_SSHS USA_R34_NE USA_R34_SE USA_R34_SW USA_R34_NW USA_R50_NE USA_R50_SE USA_R50_SW USA_R50_NW USA_R64_NE USA_R64_SE USA_R64_SW USA_R64_NW USA_POCI USA_ROCI USA_RMW USA_EYE TOKYO_LAT TOKYO_LON TOKYO_GRADE TOKYO_WIND TOKYO_PRES TOKYO_R50_DIR TOKYO_R50_LONG TOKYO_R50_SHORT TOKYO_R30_DIR TOKYO_R30_LONG TOKYO_R30_SHORT TOKYO_LAND CMA_LAT CMA_LON CMA_CAT CMA_WIND CMA_PRES HKO_LAT HKO_LON HKO_CAT HKO_WIND HKO_PRES NEWDELHI_LAT NEWDELHI_LON NEWDELHI_GRADE NEWDELHI_WIND NEWDELHI_PRES NEWDELHI_CI NEWDELHI_DP NEWDELHI_POCI REUNION_LAT REUNION_LON REUNION_TYPE REUNION_WIND REUNION_PRES REUNION_TNUM REUNION_CI REUNION_RMW REUNION_R34_NE REUNION_R34_SE REUNION_R34_SW REUNION_R34_NW REUNION_R50_NE REUNION_R50_SE REUNION_R50_SW REUNION_R50_NW REUNION_R64_NE REUNION_R64_SE REUNION_R64_SW REUNION_R64_NW BOM_LAT BOM_LON BOM_TYPE BOM_WIND BOM_PRES BOM_TNUM BOM_CI BOM_RMW BOM_R34_NE BOM_R34_SE BOM_R34_SW BOM_R34_NW BOM_R50_NE BOM_R50_SE BOM_R50_SW BOM_R50_NW BOM_R64_NE BOM_R64_SE BOM_R64_SW BOM_R64_NW BOM_ROCI BOM_POCI BOM_EYE BOM_POS_METHOD BOM_PRES_METHOD NADI_LAT NADI_LON NADI_CAT NADI_WIND NADI_PRES WELLINGTON_LAT WELLINGTON_LON WELLINGTON_WIND WELLINGTON_PRES DS824_LAT DS824_LON DS824_STAGE DS824_WIND DS824_PRES TD9636_LAT TD9636_LON TD9636_STAGE TD9636_WIND TD9636_PRES TD9635_LAT TD9635_LON TD9635_WIND TD9635_PRES TD9635_ROCI NEUMANN_LAT NEUMANN_LON NEUMANN_CLASS NEUMANN_WIND NEUMANN_PRES MLC_LAT MLC_LON MLC_CLASS MLC_WIND MLC_PRES USA_GUST BOM_GUST BOM_GUST_PER REUNION_GUST REUNION_GUST_PER USA_SEAHGT USA_SEARAD_NE USA_SEARAD_SE USA_SEARAD_SW USA_SEARAD_NW STORM_SPEED STORM_DIR
1915294N24136 1915 44 WP MM NOT_NAMED 1915-10-21 09:00:00 NR 24.1000 136.300 main 946 917 __________O___ -1 24.1000 136.300 2 4 319
1915294N24136 1915 44 WP MM NOT_NAMED 1915-10-21 12:00:00 NR 24.2642 136.141 main 917 902 __________P___ -1 24.2642 136.141 2 4 319
1915294N24136 1915 44 WP MM NOT_NAMED 1915-10-21 15:00:00 NR 24.4327 135.985 main 902 872 __________P___ -1 24.4327 135.985 2 4 321
1915294N24136 1915 44 WP MM NOT_NAMED 1915-10-21 18:00:00 NR 24.6098 135.837 main 872 848 __________P___ -1 24.6098 135.837 2 5 325
1915294N24136 1915 44 WP MM NOT_NAMED 1915-10-21 21:00:00 NR 24.8000 135.700 main 848 824 __________O___ -1 24.8000 135.700 2 5 329
1915294N24136 1915 44 WP MM NOT_NAMED 1915-10-22 00:00:00 NR 25.0065 135.577 main 824 799 __________P___ -1 25.0065 135.577 2 5 334
1915294N24136 1915 44 WP MM NOT_NAMED 1915-10-22 03:00:00 NR 25.2275 135.470 main 799 775 __________P___ -1 25.2275 135.470 2 5 338
1915294N24136 1915 44 WP MM NOT_NAMED 1915-10-22 06:00:00 NR 25.4597 135.377 main 765 741 __________P___ -1 25.4597 135.377 2 5 342
1915294N24136 1915 44 WP MM NOT_NAMED 1915-10-22 09:00:00 NR 25.7000 135.300 main 741 716 __________O___ -1 25.7000 135.300 2 5 344
1915294N24136 1915 44 WP MM NOT_NAMED 1915-10-22 12:00:00 NR 25.9550 135.227 main 707 688 __________P___ -1 25.9550 135.227 2 5 347
1915294N24136 1915 44 WP MM NOT_NAMED 1915-10-22 15:00:00 NR 26.2150 135.170 main 688 654 __________P___ -1 26.2150 135.170 2 5 350
1915294N24136 1915 44 WP MM NOT_NAMED 1915-10-22 18:00:00 NR 26.4675 135.128 main 654 635 __________P___ -1 26.4675 135.128 2 5 352
1915294N24136 1915 44 WP MM NOT_NAMED 1915-10-22 21:00:00 NR 26.7000 135.100 main 635 617 __________O___ -1 26.7000 135.100 2 4 355
1915294N24136 1915 44 WP MM NOT_NAMED 1915-10-23 00:00:00 NR 26.9047 135.081 main 617 598 __________P___ -1 26.9047 135.081 2 4 358
1915294N24136 1915 44 WP MM NOT_NAMED 1915-10-23 03:00:00 NR 27.0875 135.077 main 598 589 __________P___ -1 27.0875 135.077 2 3 2
1915294N24136 1915 44 WP MM NOT_NAMED 1915-10-23 06:00:00 NR 27.2515 135.085 main 581 572 __________P___ -1 27.2515 135.085 2 3 0
1915294N24136 1915 44 WP MM NOT_NAMED 1915-10-23 09:00:00 NR 27.4000 135.100 main 572 563 __________O___ -1 27.4000 135.100 2 3 2
1915294N24136 1915 44 WP MM NOT_NAMED 1915-10-23 12:00:00 NR 27.5394 135.114 main 563 546 __________P___ -1 27.5394 135.114 2 3 9
1915294N24136 1915 44 WP MM NOT_NAMED 1915-10-23 15:00:00 NR 27.6650 135.135 main 546 544 __________P___ -1 27.6650 135.135 2 2 9
1915294N24136 1915 44 WP MM NOT_NAMED 1915-10-23 18:00:00 NR 27.7831 135.164 main 544 535 __________P___ -1 27.7831 135.164 2 2 12
1915294N24136 1915 44 WP MM NOT_NAMED 1915-10-23 21:00:00 NR 27.9000 135.200 main 535 527 __________O___ -1 27.9000 135.200 2 3 15
1915294N24136 1915 44 WP MM NOT_NAMED 1915-10-24 00:00:00 NR 28.0250 135.239 main 527 519 __________P___ -1 28.0250 135.239 2 3 18
1915294N24136 1915 44 WP MM NOT_NAMED 1915-10-24 03:00:00 NR 28.1500 135.285 main 526 510 __________P___ -1 28.1500 135.285 2 3 20
1915294N24136 1915 44 WP MM NOT_NAMED 1915-10-24 06:00:00 NR 28.2750 135.339 main 510 510 __________P___ -1 28.2750 135.339 2 3 23
1915294N24136 1915 44 WP MM NOT_NAMED 1915-10-24 09:00:00 NR 28.4000 135.400 main 510 502 __________O___ -1 28.4000 135.400 2 3 21
1915294N24136 1915 44 WP MM NOT_NAMED 1915-10-24 12:00:00 NR 28.5086 135.444 main 502 502 __________P___ -1 28.5086 135.444 2 2 22
1915294N24136 1915 44 WP MM NOT_NAMED 1915-10-24 15:00:00 NR 28.6198 135.498 main 502 495 __________P___ -1 28.6198 135.498 2 3 27
1915294N24136 1915 44 WP MM NOT_NAMED 1915-10-24 18:00:00 NR 28.7460 135.578 main 503 495 __________P___ -1 28.7460 135.578 2 3 32
1915294N24136 1915 44 WP MM NOT_NAMED 1915-10-24 21:00:00 NR 28.9000 135.700 main 495 479 __________O___ -1 28.9000 135.700 2 4 35
1915294N24136 1915 44 WP MM NOT_NAMED 1915-10-25 00:00:00 NR 29.1125 135.869 main 479 457 __________P___ -1 29.1125 135.869 2 6 36
1915294N24136 1915 44 WP MM NOT_NAMED 1915-10-25 03:00:00 NR 29.3499 136.082 main 458 426 __________P___ -1 29.3499 136.082 2 6 40
1915294N24136 1915 44 WP MM NOT_NAMED 1915-10-25 06:00:00 NR 29.5874 136.329 main 426 406 __________P___ -1 29.5874 136.329 2 6 45
1915294N24136 1915 44 WP MM NOT_NAMED 1915-10-25 09:00:00 NR 29.8000 136.600 main 408 393 __________O___ -1 29.8000 136.600 2 6 51
1915294N24136 1915 44 WP MM NOT_NAMED 1915-10-25 12:00:00 NR 29.9742 136.887 main 393 385 __________P___ -1 29.9742 136.887 2 6 58
1915294N24136 1915 44 WP MM NOT_NAMED 1915-10-25 15:00:00 NR 30.1177 137.192 main 391 383 __________P___ -1 30.1177 137.192 2 6 65
1915294N24136 1915 44 WP MM NOT_NAMED 1915-10-25 18:00:00 NR 30.2273 137.502 main 391 385 __________P___ -1 30.2273 137.502 2 6 71
1915294N24136 1915 44 WP MM NOT_NAMED 1915-10-25 21:00:00 NR 30.3000 137.800 main 393 393 __________O___ -1 30.3000 137.800 2 5 77
1915294N24136 1915 44 WP MM NOT_NAMED 1915-10-26 00:00:00 NR 30.3398 138.073 main 408 408 __________P___ -1 30.3398 138.073 2 5 84
1915294N24136 1915 44 WP MM NOT_NAMED 1915-10-26 03:00:00 NR 30.3448 138.331 main 418 418 __________P___ -1 30.3448 138.331 2 4 92
1915294N24136 1915 44 WP MM NOT_NAMED 1915-10-26 06:00:00 NR 30.3274 138.573 main 435 435 __________P___ -1 30.3274 138.573 2 4 96
1915294N24136 1915 44 WP MM NOT_NAMED 1915-10-26 09:00:00 NR 30.3000 138.800 main 446 446 __________O___ -1 30.3000 138.800 2 4 98
1915294N24136 1915 44 WP MM NOT_NAMED 1915-10-26 12:00:00 NR 30.2729 139.013 main 458 458 __________P___ -1 30.2729 139.013 2 4 98
1915294N24136 1915 44 WP MM NOT_NAMED 1915-10-26 15:00:00 NR 30.2477 139.215 main 479 479 __________P___ -1 30.2477 139.215 2 3 98
1915294N24136 1915 44 WP MM NOT_NAMED 1915-10-26 18:00:00 NR 30.2236 139.409 main 492 492 __________P___ -1 30.2236 139.409 2 3 98
1915294N24136 1915 44 WP MM NOT_NAMED 1915-10-26 21:00:00 NR 30.2000 139.600 main 496 __________O___ -1 30.2000 139.600 2 3 98

デジタル台風データ・検索

IBTrACS Databaseについて

本データベースは、米国NOAAが公開する1842年以降の世界の熱帯低気圧のベストトラックデータアーカイブInternational Best Track Archive for Climate Stewardship (IBTrACS)を、ウェブで閲覧しやすい形式に変換したものです。

最終更新日:2021-10-21